Time;durP1;ratioP1;P1;durP2;ratioP2;P2;SDS_P1;SDS_P2;PMS_P1;PMS_P2;Temp;Humidity;BMP_temperature;BMP_pressure;BME280_temperature;BME280_humidity;BME280_pressure;Samples;Min_cycle;Max_cycle;Signal;HPM_P1;HPM_P2
2022/03/03 00:02:03;;;;;;;97.38;47.95;;;2.20;99.90;;;;;;5089711;27;20130;-58
2022/03/03 00:04:29;;;;;;;96.50;47.83;;;2.20;99.90;;;;;;5088890;28;20044;-58
2022/03/03 00:06:55;;;;;;;90.70;46.53;;;2.30;99.90;;;;;;5076997;28;20486;-59
2022/03/03 00:09:21;;;;;;;93.78;46.47;;;2.30;99.90;;;;;;5089161;28;21768;-59
2022/03/03 00:11:46;;;;;;;105.13;48.58;;;2.30;99.90;;;;;;5089446;27;20058;-58
2022/03/03 00:14:12;;;;;;;94.40;45.13;;;2.30;99.90;;;;;;5084869;27;20383;-59
2022/03/03 00:16:38;;;;;;;92.53;46.70;;;2.30;99.90;;;;;;5088555;28;20043;-58
2022/03/03 00:19:04;;;;;;;96.97;47.78;;;2.40;99.90;;;;;;5089771;27;20147;-58
2022/03/03 00:21:30;;;;;;;90.43;45.72;;;2.30;99.90;;;;;;5072204;28;20044;-58
2022/03/03 00:23:56;;;;;;;92.82;45.88;;;2.40;99.90;;;;;;5089114;27;20406;-59
2022/03/03 00:26:22;;;;;;;93.63;47.03;;;2.40;99.90;;;;;;5088668;27;20075;-58
2022/03/03 00:28:47;;;;;;;88.18;45.70;;;2.30;99.90;;;;;;5088881;28;20135;-59
2022/03/03 00:31:13;;;;;;;91.88;47.42;;;2.40;99.90;;;;;;5087718;28;20078;-58
2022/03/03 00:33:39;;;;;;;95.20;45.67;;;2.40;99.90;;;;;;5092014;27;20044;-58
2022/03/03 00:36:05;;;;;;;91.38;46.72;;;2.30;99.90;;;;;;5086551;28;20131;-59
2022/03/03 00:38:31;;;;;;;97.80;48.13;;;2.30;99.90;;;;;;5090498;27;20044;-59
2022/03/03 00:40:57;;;;;;;88.57;44.65;;;2.30;99.90;;;;;;5089687;28;20047;-57
2022/03/03 00:43:23;;;;;;;90.65;44.75;;;2.40;99.90;;;;;;5076542;28;20044;-58
2022/03/03 00:45:49;;;;;;;97.10;46.75;;;2.30;99.90;;;;;;5088053;28;20054;-57
2022/03/03 00:48:15;;;;;;;90.30;45.15;;;2.30;99.90;;;;;;5087158;28;20054;-56
2022/03/03 00:50:41;;;;;;;91.57;46.38;;;2.30;99.90;;;;;;5091944;27;20510;-58
2022/03/03 00:53:06;;;;;;;83.93;43.15;;;2.30;99.90;;;;;;5090715;27;20987;-58
2022/03/03 00:55:32;;;;;;;86.30;45.03;;;2.30;99.90;;;;;;5078275;28;20088;-59
2022/03/03 00:57:58;;;;;;;84.93;44.65;;;2.20;99.90;;;;;;5086947;27;20052;-58
2022/03/03 01:00:24;;;;;;;93.05;45.58;;;2.20;99.90;;;;;;5070452;28;20059;-58
2022/03/03 01:02:51;;;;;;;84.10;45.33;;;2.20;99.90;;;;;;5085920;28;20075;-58
2022/03/03 01:05:17;;;;;;;86.40;43.78;;;2.20;99.90;;;;;;5068069;28;20103;-58
2022/03/03 01:07:43;;;;;;;88.47;44.15;;;2.10;99.90;;;;;;5084846;28;20114;-58
2022/03/03 01:10:10;;;;;;;84.00;41.50;;;2.20;99.90;;;;;;5087677;27;20054;-57
2022/03/03 01:12:36;;;;;;;96.95;46.28;;;2.10;99.90;;;;;;5086389;27;20047;-59
2022/03/03 01:15:07;;;;;;;84.07;44.83;;;2.10;99.90;;;;;;5072810;28;20036;-58
2022/03/03 01:17:33;;;;;;;77.78;41.92;;;2.10;99.90;;;;;;5059315;28;20836;-57
2022/03/03 01:19:59;;;;;;;79.53;42.80;;;2.10;99.90;;;;;;5088411;28;20051;-58
2022/03/03 01:22:25;;;;;;;84.30;43.03;;;2.10;99.90;;;;;;5066553;28;20052;-58
2022/03/03 01:24:51;;;;;;;79.70;43.72;;;2.00;99.90;;;;;;5072339;28;20122;-58
2022/03/03 01:27:17;;;;;;;84.47;43.90;;;2.00;99.90;;;;;;5086391;27;20056;-58
2022/03/03 01:29:43;;;;;;;85.65;43.83;;;2.00;99.90;;;;;;5072244;27;20039;-59
2022/03/03 01:32:09;;;;;;;84.50;43.28;;;2.00;99.90;;;;;;5084900;28;20039;-58
2022/03/03 01:34:36;;;;;;;86.53;42.05;;;2.00;99.90;;;;;;5084098;28;20052;-56
2022/03/03 01:37:02;;;;;;;83.25;42.40;;;1.90;99.90;;;;;;5084217;28;20052;-59
2022/03/03 01:39:28;;;;;;;76.30;41.00;;;1.90;99.90;;;;;;5069790;28;20415;-58
2022/03/03 01:41:55;;;;;;;77.97;41.17;;;1.90;99.90;;;;;;5084536;27;20055;-58
2022/03/03 01:44:21;;;;;;;82.40;43.05;;;1.90;99.90;;;;;;5085604;27;20036;-57
2022/03/03 01:46:52;;;;;;;85.78;43.50;;;1.90;99.90;;;;;;5068509;28;20575;-58
2022/03/03 01:49:19;;;;;;;79.55;41.30;;;1.80;99.90;;;;;;5088792;27;20581;-58
2022/03/03 01:51:45;;;;;;;81.18;42.20;;;1.80;99.90;;;;;;5070266;28;20058;-58
2022/03/03 01:54:12;;;;;;;81.00;42.60;;;1.70;99.90;;;;;;5070115;28;20069;-58
2022/03/03 01:56:40;;;;;;;74.35;40.25;;;1.60;99.90;;;;;;5086887;28;20139;-57
2022/03/03 01:59:06;;;;;;;84.57;42.70;;;1.60;99.90;;;;;;5089455;28;20090;-58
2022/03/03 02:01:32;;;;;;;79.22;42.20;;;1.60;99.90;;;;;;5085415;28;20540;-57
2022/03/03 02:03:58;;;;;;;75.00;41.45;;;1.60;99.90;;;;;;5074889;28;20048;-58
2022/03/03 02:06:25;;;;;;;84.65;43.30;;;1.50;99.90;;;;;;5070369;28;20039;-58
2022/03/03 02:08:52;;;;;;;78.57;42.95;;;1.50;99.90;;;;;;5069462;28;20051;-58
2022/03/03 02:11:20;;;;;;;82.15;43.15;;;1.50;99.90;;;;;;5070771;28;20047;-58
2022/03/03 02:13:46;;;;;;;86.00;42.95;;;1.40;99.90;;;;;;5085676;28;20456;-58
2022/03/03 02:16:12;;;;;;;83.88;43.17;;;1.40;99.90;;;;;;5066713;28;20039;-58
2022/03/03 02:18:42;;;;;;;77.45;42.40;;;1.40;99.90;;;;;;5085308;28;20039;-58
2022/03/03 02:21:13;;;;;;;77.43;41.38;;;1.40;99.90;;;;;;5087065;28;20043;-58
2022/03/03 02:23:39;;;;;;;69.53;39.50;;;1.30;99.90;;;;;;5088064;28;20508;-59
2022/03/03 02:26:07;;;;;;;74.97;39.60;;;1.30;99.90;;;;;;5088404;28;20051;-58
2022/03/03 02:28:33;;;;;;;80.15;41.65;;;1.30;99.90;;;;;;5085146;28;20068;-59
2022/03/03 02:30:59;;;;;;;81.18;42.42;;;1.30;99.90;;;;;;5086080;28;20044;-58
2022/03/03 02:33:25;;;;;;;76.00;40.50;;;1.30;99.90;;;;;;5085354;28;20050;-56
2022/03/03 02:35:51;;;;;;;80.88;41.75;;;1.30;99.90;;;;;;5068446;28;20044;-58
2022/03/03 02:38:17;;;;;;;82.85;42.05;;;1.30;99.90;;;;;;5084198;28;20050;-59
2022/03/03 02:40:42;;;;;;;77.82;41.40;;;1.30;99.90;;;;;;5069296;28;20110;-58
2022/03/03 02:43:08;;;;;;;77.22;42.97;;;1.20;99.90;;;;;;5084446;28;20047;-57
2022/03/03 02:45:34;;;;;;;82.32;41.47;;;1.20;99.90;;;;;;5053732;28;20133;-59
2022/03/03 02:48:00;;;;;;;81.53;41.20;;;1.20;99.90;;;;;;5050732;28;20048;-57
2022/03/03 02:50:26;;;;;;;83.28;43.05;;;1.10;99.90;;;;;;5040515;28;20096;-59
2022/03/03 02:52:52;;;;;;;77.97;42.20;;;1.10;99.90;;;;;;5056957;28;20043;-57
2022/03/03 02:55:20;;;;;;;79.45;41.53;;;1.10;99.90;;;;;;5066751;28;20436;-59
2022/03/03 02:57:55;;;;;;;84.03;44.63;;;1.10;99.90;;;;;;5085871;28;20051;-59
2022/03/03 03:00:38;;;;;;;79.05;41.40;;;1.10;99.90;;;;;;5083821;28;20421;-58
2022/03/03 03:03:04;;;;;;;76.45;41.85;;;1.10;99.90;;;;;;5081941;28;20159;-58
2022/03/03 03:05:30;;;;;;;83.68;42.65;;;1.00;99.90;;;;;;5069516;28;20055;-58
2022/03/03 03:07:56;;;;;;;75.93;40.10;;;1.00;99.90;;;;;;5083573;28;20062;-58
2022/03/03 03:10:23;;;;;;;72.78;39.33;;;1.00;99.90;;;;;;5086784;28;20410;-58
2022/03/03 03:12:49;;;;;;;75.18;40.25;;;1.00;99.90;;;;;;5085314;28;20410;-58
2022/03/03 03:15:15;;;;;;;77.35;42.40;;;0.90;99.90;;;;;;5085725;28;20055;-58
2022/03/03 03:17:41;;;;;;;80.45;42.00;;;0.90;99.90;;;;;;5084205;28;20149;-56
2022/03/03 03:20:08;;;;;;;82.50;42.30;;;0.90;99.90;;;;;;5084697;28;20043;-58
2022/03/03 03:22:35;;;;;;;80.88;41.97;;;0.80;99.90;;;;;;5069206;28;20047;-58
2022/03/03 03:25:02;;;;;;;82.47;43.25;;;0.80;99.90;;;;;;5066697;28;20088;-58
2022/03/03 03:27:28;;;;;;;79.82;42.75;;;0.80;99.90;;;;;;5085346;28;20159;-57
2022/03/03 03:29:54;;;;;;;85.85;43.40;;;0.70;99.90;;;;;;5083747;28;20126;-58
2022/03/03 03:32:20;;;;;;;86.22;42.92;;;0.70;99.90;;;;;;5084797;27;20706;-57
2022/03/03 03:34:46;;;;;;;83.60;41.78;;;0.70;99.90;;;;;;5071128;28;20040;-59
2022/03/03 03:37:11;;;;;;;84.15;44.47;;;0.70;99.90;;;;;;5089942;27;20159;-58
2022/03/03 03:39:37;;;;;;;86.13;42.70;;;0.70;99.90;;;;;;5087987;27;20052;-59
2022/03/03 03:42:04;;;;;;;82.70;42.13;;;0.70;99.90;;;;;;5089950;27;20044;-58
2022/03/03 03:44:30;;;;;;;87.43;43.20;;;0.70;99.90;;;;;;5074347;28;20502;-56
2022/03/03 03:46:55;;;;;;;86.50;44.10;;;0.70;99.90;;;;;;5088761;27;20089;-58
2022/03/03 03:49:21;;;;;;;83.45;42.42;;;0.70;99.90;;;;;;5070345;28;20035;-58
2022/03/03 03:51:47;;;;;;;80.88;43.90;;;0.70;99.90;;;;;;5088041;27;20059;-57
2022/03/03 03:54:13;;;;;;;83.88;43.55;;;0.70;99.90;;;;;;5070581;27;21006;-58
2022/03/03 03:56:38;;;;;;;76.32;40.58;;;0.70;99.90;;;;;;5090785;27;22868;-58
2022/03/03 03:59:04;;;;;;;73.30;39.58;;;0.80;99.90;;;;;;5088829;28;20047;-56
2022/03/03 04:01:31;;;;;;;80.82;41.17;;;0.70;99.90;;;;;;5084327;28;20120;-59
2022/03/03 04:03:57;;;;;;;72.72;40.65;;;0.70;99.90;;;;;;5091067;28;20079;-58
2022/03/03 04:06:23;;;;;;;78.00;42.05;;;0.80;99.90;;;;;;5074292;28;20048;-57
2022/03/03 04:08:49;;;;;;;73.65;39.45;;;0.80;99.90;;;;;;5068723;27;20161;-57
2022/03/03 04:11:15;;;;;;;76.72;40.58;;;0.80;99.90;;;;;;5069633;28;20040;-57
2022/03/03 04:13:41;;;;;;;69.90;39.60;;;0.80;99.90;;;;;;5086821;27;20651;-58
2022/03/03 04:16:07;;;;;;;71.22;38.33;;;0.90;99.90;;;;;;5087922;27;20127;-58
2022/03/03 04:18:32;;;;;;;73.13;38.47;;;0.90;99.90;;;;;;5087264;27;20043;-59
2022/03/03 04:20:58;;;;;;;75.45;39.65;;;0.90;99.90;;;;;;5088736;28;20054;-58
2022/03/03 04:23:24;;;;;;;66.68;37.90;;;0.90;99.90;;;;;;5086404;27;20392;-58
2022/03/03 04:25:50;;;;;;;69.13;36.63;;;0.90;99.90;;;;;;5087248;27;20520;-58
2022/03/03 04:28:15;;;;;;;68.85;36.72;;;0.90;99.90;;;;;;5069338;28;20046;-58
2022/03/03 04:30:41;;;;;;;63.40;36.05;;;0.80;99.90;;;;;;5087540;27;20048;-58
2022/03/03 04:33:07;;;;;;;60.10;34.92;;;0.90;99.90;;;;;;5086111;27;20059;-58
2022/03/03 04:35:33;;;;;;;72.90;36.28;;;0.90;99.90;;;;;;5072506;28;20043;-58
2022/03/03 04:37:59;;;;;;;62.33;34.72;;;0.90;99.90;;;;;;5088816;27;20040;-57
2022/03/03 04:40:24;;;;;;;60.10;35.20;;;0.90;99.90;;;;;;5069911;28;20502;-58
2022/03/03 04:42:51;;;;;;;63.28;34.47;;;0.90;99.90;;;;;;5072362;28;20060;-58
2022/03/03 04:45:17;;;;;;;54.22;33.28;;;0.90;99.90;;;;;;5087744;27;20308;-58
2022/03/03 04:47:43;;;;;;;60.97;34.53;;;0.90;99.90;;;;;;5089529;27;20055;-58
2022/03/03 04:50:09;;;;;;;64.43;35.10;;;1.00;99.90;;;;;;5088841;28;20598;-56
2022/03/03 04:52:35;;;;;;;58.50;34.10;;;0.90;99.90;;;;;;5085207;27;20437;-58
2022/03/03 04:55:04;;;;;;;58.20;34.22;;;0.90;99.90;;;;;;5088636;27;20044;-57
2022/03/03 04:57:29;;;;;;;65.75;34.15;;;0.90;99.90;;;;;;5086819;28;20124;-58
2022/03/03 04:59:55;;;;;;;61.78;35.42;;;0.90;99.90;;;;;;5069841;28;20127;-56
2022/03/03 05:02:21;;;;;;;62.05;34.50;;;0.90;99.90;;;;;;5071345;28;20047;-57
2022/03/03 05:04:47;;;;;;;63.92;36.08;;;0.90;99.90;;;;;;5087889;27;20421;-58
2022/03/03 05:07:13;;;;;;;61.90;34.40;;;0.90;99.90;;;;;;5053376;28;20122;-57
2022/03/03 05:09:39;;;;;;;64.18;35.28;;;0.80;99.90;;;;;;5087580;28;20059;-58
2022/03/03 05:12:06;;;;;;;58.28;34.00;;;0.80;99.90;;;;;;5088467;27;20127;-57
2022/03/03 05:14:31;;;;;;;64.63;35.35;;;0.80;99.90;;;;;;5088070;27;20498;-58
2022/03/03 05:16:57;;;;;;;61.75;35.40;;;0.80;99.90;;;;;;5072974;28;20154;-58
2022/03/03 05:19:23;;;;;;;57.63;34.35;;;0.80;99.90;;;;;;5088427;28;20514;-58
2022/03/03 05:21:49;;;;;;;60.83;34.83;;;0.80;99.90;;;;;;5090835;28;20044;-58
2022/03/03 05:24:15;;;;;;;59.67;33.40;;;0.70;99.90;;;;;;5088651;27;20043;-58
2022/03/03 05:26:41;;;;;;;60.17;34.85;;;0.70;99.90;;;;;;5087484;27;20051;-57
2022/03/03 05:29:07;;;;;;;59.88;33.70;;;0.50;99.90;;;;;;5089434;28;20172;-58
2022/03/03 05:31:33;;;;;;;62.28;34.15;;;0.80;99.90;;;;;;5071312;28;20078;-58
2022/03/03 05:33:59;;;;;;;62.72;33.95;;;0.70;99.90;;;;;;5087832;28;20121;-56
2022/03/03 05:36:26;;;;;;;60.95;33.88;;;0.70;99.90;;;;;;5069988;28;20044;-58
2022/03/03 05:38:55;;;;;;;60.10;34.15;;;0.60;99.90;;;;;;5085824;28;20552;-58
2022/03/03 05:41:21;;;;;;;60.33;35.00;;;0.60;99.90;;;;;;5089009;27;20051;-57
2022/03/03 05:43:47;;;;;;;63.58;34.67;;;0.60;99.90;;;;;;5088535;28;20051;-56
2022/03/03 05:46:15;;;;;;;57.30;33.88;;;0.60;99.90;;;;;;5085661;27;20577;-56
2022/03/03 05:48:41;;;;;;;60.40;34.78;;;0.60;99.90;;;;;;5087357;27;20112;-58
2022/03/03 05:51:07;;;;;;;60.17;34.38;;;0.60;99.90;;;;;;5087527;27;20043;-58
2022/03/03 05:53:33;;;;;;;62.05;33.85;;;0.50;99.90;;;;;;5086240;27;20035;-58
2022/03/03 05:56:02;;;;;;;60.85;34.67;;;0.50;99.90;;;;;;5087983;28;20042;-58
2022/03/03 05:58:48;;;;;;;59.25;34.83;;;0.50;99.90;;;;;;5060280;28;20438;-57
2022/03/03 06:01:16;;;;;;;66.38;35.53;;;0.50;99.90;;;;;;5089202;28;20040;-58
2022/03/03 06:03:46;;;;;;;60.05;34.47;;;0.50;99.90;;;;;;5088644;28;20039;-58
2022/03/03 06:06:16;;;;;;;68.68;37.60;;;0.50;99.90;;;;;;5071822;28;20047;-59
2022/03/03 06:08:53;;;;;;;60.65;35.55;;;0.50;99.90;;;;;;5090324;27;20040;-57
2022/03/03 06:11:23;;;;;;;67.35;38.17;;;0.40;99.90;;;;;;5086522;28;20032;-58
2022/03/03 06:13:52;;;;;;;65.38;36.72;;;0.40;99.90;;;;;;5066927;28;20154;-58
2022/03/03 06:16:19;;;;;;;65.10;35.78;;;0.40;99.90;;;;;;5054188;28;20043;-58
2022/03/03 06:18:46;;;;;;;65.80;37.80;;;0.40;99.90;;;;;;5085793;27;20135;-59
2022/03/03 06:21:12;;;;;;;67.38;38.88;;;0.40;99.90;;;;;;5087783;28;20040;-58
2022/03/03 06:23:38;;;;;;;71.28;40.63;;;0.40;99.90;;;;;;5085986;28;20131;-58
2022/03/03 06:26:07;;;;;;;64.15;37.40;;;0.40;99.90;;;;;;5086035;28;20351;-57
2022/03/03 06:28:36;;;;;;;66.30;37.33;;;0.40;99.90;;;;;;5087616;28;20036;-58
2022/03/03 06:31:04;;;;;;;66.28;37.55;;;0.40;99.90;;;;;;5086066;28;20051;-58
2022/03/03 06:33:30;;;;;;;65.15;36.95;;;0.40;99.90;;;;;;5054864;28;20111;-57
2022/03/03 06:35:56;;;;;;;66.32;36.90;;;0.40;99.90;;;;;;5086944;28;20489;-58
2022/03/03 06:38:22;;;;;;;68.63;37.17;;;0.40;99.90;;;;;;5082077;28;20158;-58
2022/03/03 06:40:49;;;;;;;68.95;37.30;;;0.40;99.90;;;;;;5085344;28;20044;-57
2022/03/03 06:43:15;;;;;;;66.15;37.17;;;0.40;99.90;;;;;;5086922;28;20047;-58
2022/03/03 06:45:41;;;;;;;70.93;38.40;;;0.40;99.90;;;;;;5083253;28;20080;-56
2022/03/03 06:48:07;;;;;;;68.93;37.75;;;0.40;99.90;;;;;;5086171;28;20115;-58
2022/03/03 06:50:38;;;;;;;67.38;37.58;;;0.40;99.90;;;;;;5088691;28;20048;-58
2022/03/03 06:53:07;;;;;;;71.75;37.75;;;0.40;99.90;;;;;;5080861;28;20055;-57
2022/03/03 06:55:33;;;;;;;75.55;38.63;;;0.50;99.90;;;;;;5068820;28;20063;-58
2022/03/03 06:57:59;;;;;;;72.30;39.28;;;0.50;99.90;;;;;;5087059;28;20374;-57
2022/03/03 07:00:34;;;;;;;69.38;37.90;;;0.50;99.90;;;;;;5084298;28;20048;-57
2022/03/03 07:03:01;;;;;;;71.35;38.42;;;0.50;99.90;;;;;;5088224;28;20416;-57
2022/03/03 07:05:29;;;;;;;72.20;39.72;;;0.50;99.90;;;;;;5085650;28;20046;-56
2022/03/03 07:07:55;;;;;;;70.70;39.40;;;0.50;99.90;;;;;;5089597;27;20069;-58
2022/03/03 07:10:25;;;;;;;71.75;39.08;;;0.60;99.90;;;;;;5088269;27;20051;-58
2022/03/03 07:13:00;;;;;;;74.15;38.55;;;0.60;99.90;;;;;;5056898;28;20050;-58
2022/03/03 07:15:26;;;;;;;69.18;38.88;;;0.60;99.90;;;;;;5087421;27;20066;-61
2022/03/03 07:17:56;;;;;;;72.45;40.40;;;0.60;99.90;;;;;;5083173;27;20052;-61
2022/03/03 07:20:35;;;;;;;76.75;39.65;;;0.60;99.90;;;;;;5079926;28;20043;-61
2022/03/03 07:23:21;;;;;;;74.20;39.67;;;0.60;99.90;;;;;;5085414;27;20063;-61
2022/03/03 07:25:53;;;;;;;70.20;37.67;;;0.70;99.90;;;;;;5074659;27;20040;-61
2022/03/03 07:28:20;;;;;;;75.35;38.28;;;0.70;99.90;;;;;;5075981;28;20083;-61
2022/03/03 07:30:49;;;;;;;74.03;38.67;;;0.70;99.90;;;;;;5085595;28;20040;-61
2022/03/03 07:33:22;;;;;;;74.88;38.00;;;0.80;99.90;;;;;;5072192;28;21006;-61
2022/03/03 07:35:49;;;;;;;;;;;0.80;99.90;;;;;;5090533;28;20059;-61
2022/03/03 07:38:19;;;;;;;74.05;39.88;;;0.80;99.90;;;;;;5068492;28;19996;-61
2022/03/03 07:40:48;;;;;;;72.63;38.95;;;0.90;99.90;;;;;;5085393;28;20071;-62
2022/03/03 07:43:15;;;;;;;72.22;38.53;;;0.90;99.90;;;;;;5083620;28;20047;-61
2022/03/03 07:45:42;;;;;;;74.68;38.42;;;0.90;99.90;;;;;;5084957;27;20036;-61
2022/03/03 07:48:09;;;;;;;72.40;38.53;;;0.90;99.90;;;;;;5062356;28;20056;-61
2022/03/03 07:50:39;;;;;;;69.00;38.20;;;1.00;99.90;;;;;;5085570;28;20048;-61
2022/03/03 07:53:10;;;;;;;72.90;37.53;;;1.00;99.90;;;;;;5086663;28;20043;-61
2022/03/03 07:55:46;;;;;;;71.13;38.47;;;1.10;99.90;;;;;;5085181;28;20108;-61
2022/03/03 07:58:15;;;;;;;71.18;38.45;;;1.10;99.90;;;;;;5085398;28;20381;-61
2022/03/03 08:00:46;;;;;;;68.25;36.88;;;1.20;99.90;;;;;;5066759;28;20043;-61
2022/03/03 08:03:16;;;;;;;65.68;37.47;;;1.20;99.90;;;;;;5069103;28;20059;-62
2022/03/03 08:05:48;;;;;;;69.90;37.17;;;1.30;99.90;;;;;;5073105;28;20122;-61
2022/03/03 08:08:16;;;;;;;63.42;36.40;;;1.40;99.90;;;;;;5056232;28;20048;-60
2022/03/03 08:10:44;;;;;;;62.70;35.35;;;1.40;99.90;;;;;;5084837;28;20043;-61
2022/03/03 08:13:15;;;;;;;61.72;35.00;;;1.50;99.90;;;;;;5070262;28;20135;-62
2022/03/03 08:15:45;;;;;;;63.30;35.25;;;1.60;99.90;;;;;;5064837;28;20055;-61
2022/03/03 08:18:11;;;;;;;64.15;35.40;;;1.60;99.90;;;;;;5083944;28;20051;-61
2022/03/03 08:20:39;;;;;;;61.38;34.25;;;1.70;99.90;;;;;;5085074;28;20059;-61
2022/03/03 08:23:06;;;;;;;65.70;36.38;;;1.80;99.90;;;;;;5065228;28;20048;-62
2022/03/03 08:25:34;;;;;;;62.78;34.42;;;1.80;99.90;;;;;;5084971;27;20039;-61
2022/03/03 08:28:02;;;;;;;62.63;34.67;;;2.00;99.90;;;;;;5049101;27;20166;-61
2022/03/03 08:30:29;;;;;;;65.50;35.25;;;2.00;99.90;;;;;;5066736;28;20048;-61
2022/03/03 08:33:27;;;;;;;61.13;34.75;;;2.10;99.90;;;;;;5085922;27;20047;-61
2022/03/03 08:35:59;;;;;;;51.45;31.17;;;2.30;99.90;;;;;;5067966;28;20122;-61
2022/03/03 08:38:36;;;;;;;58.72;32.25;;;2.40;99.90;;;;;;5069438;27;20497;-61
2022/03/03 08:41:04;;;;;;;57.13;31.95;;;2.60;99.90;;;;;;5089166;27;20047;-61
2022/03/03 08:43:36;;;;;;;54.92;32.38;;;2.70;99.90;;;;;;5085206;27;20227;-61
2022/03/03 08:46:08;;;;;;;56.65;32.35;;;2.80;99.90;;;;;;5070428;28;20941;-61
2022/03/03 08:48:34;;;;;;;53.03;31.05;;;3.00;99.90;;;;;;5072100;28;20058;-61
2022/03/03 08:51:01;;;;;;;51.10;31.23;;;3.10;99.90;;;;;;5070973;28;20052;-61
2022/03/03 08:53:27;;;;;;;53.03;31.33;;;3.30;99.90;;;;;;5065170;28;20134;-60
2022/03/03 08:55:58;;;;;;;60.17;30.15;;;3.40;99.90;;;;;;5086207;27;22567;-61
2022/03/03 08:58:25;;;;;;;50.72;29.52;;;3.50;99.90;;;;;;5085900;27;20051;-60
2022/03/03 09:00:52;;;;;;;50.67;30.45;;;3.60;99.90;;;;;;5067104;28;20051;-60
2022/03/03 09:03:21;;;;;;;48.35;29.15;;;3.80;99.90;;;;;;5066747;28;20370;-61
2022/03/03 09:05:48;;;;;;;49.85;30.00;;;3.90;99.90;;;;;;5053474;28;20115;-61
2022/03/03 09:08:14;;;;;;;54.47;31.40;;;4.10;99.90;;;;;;5056669;27;20482;-61
2022/03/03 09:10:41;;;;;;;53.63;30.90;;;4.10;99.90;;;;;;5083115;28;20748;-60
2022/03/03 09:13:07;;;;;;;57.13;31.58;;;4.30;99.90;;;;;;5069411;27;20039;-61
2022/03/03 09:15:33;;;;;;;51.70;31.30;;;4.40;99.90;;;;;;5087391;27;20044;-60
2022/03/03 09:18:00;;;;;;;52.95;31.17;;;4.50;99.90;;;;;;5058962;27;20134;-60
2022/03/03 09:20:27;;;;;;;52.85;30.75;;;4.50;99.90;;;;;;5074313;28;21020;-61
2022/03/03 09:22:53;;;;;;;48.90;30.42;;;4.60;99.90;;;;;;5081881;27;20130;-60
2022/03/03 09:25:19;;;;;;;54.25;31.92;;;4.70;99.90;;;;;;5085385;27;20047;-61
2022/03/03 09:27:46;;;;;;;53.25;31.65;;;4.90;99.90;;;;;;5082828;28;20048;-61
2022/03/03 09:30:12;;;;;;;50.47;30.35;;;5.00;99.90;;;;;;5052385;28;20931;-61
2022/03/03 09:32:38;;;;;;;49.35;30.98;;;5.10;99.90;;;;;;5072024;28;20576;-61
2022/03/03 09:35:05;;;;;;;53.25;32.22;;;5.20;99.90;;;;;;5073528;28;20079;-61
2022/03/03 09:37:31;;;;;;;48.13;29.33;;;5.30;99.90;;;;;;5066248;28;20040;-61
2022/03/03 09:39:57;;;;;;;50.08;29.70;;;5.50;99.90;;;;;;5050198;28;20058;-61
2022/03/03 09:42:22;;;;;;;46.42;29.42;;;5.60;99.90;;;;;;5065171;28;20405;-61
2022/03/03 09:44:48;;;;;;;46.80;28.77;;;5.70;99.90;;;;;;5069540;28;20044;-61
2022/03/03 09:47:17;;;;;;;48.28;28.83;;;5.70;99.90;;;;;;5073258;28;20044;-61
2022/03/03 09:49:44;;;;;;;48.08;28.02;;;5.90;99.90;;;;;;5084316;28;20143;-61
2022/03/03 09:52:19;;;;;;;43.85;27.20;;;6.00;99.90;;;;;;5082255;28;20143;-61
2022/03/03 09:54:51;;;;;;;47.53;28.83;;;6.20;99.90;;;;;;5068497;28;21327;-61
2022/03/03 09:57:17;;;;;;;44.67;27.52;;;6.30;99.90;;;;;;5065624;28;20059;-62
2022/03/03 09:59:49;;;;;;;46.13;26.52;;;6.40;99.90;;;;;;5082997;28;20048;-61
2022/03/03 10:02:15;;;;;;;42.43;25.77;;;6.60;99.90;;;;;;5069573;28;20066;-61
2022/03/03 10:04:41;;;;;;;43.25;25.27;;;6.80;99.90;;;;;;5083804;28;20048;-61
2022/03/03 10:07:09;;;;;;;41.58;25.20;;;6.90;99.90;;;;;;5068294;28;20500;-60
2022/03/03 10:09:59;;;;;;;37.33;24.13;;;7.10;99.20;;;;;;5073065;28;20059;-61
2022/03/03 10:12:27;;;;;;;36.63;25.08;;;7.20;98.20;;;;;;5083395;28;20040;-61
2022/03/03 10:15:02;;;;;;;36.28;24.67;;;7.40;97.40;;;;;;5067950;28;20043;-60
2022/03/03 10:17:38;;;;;;;39.38;24.95;;;7.50;96.80;;;;;;5085343;28;20031;-62
2022/03/03 10:20:07;;;;;;;35.15;23.10;;;7.70;95.90;;;;;;5065703;28;20054;-62
2022/03/03 10:22:40;;;;;;;35.50;23.40;;;7.80;94.50;;;;;;5064218;28;20432;-62
2022/03/03 10:25:07;;;;;;;32.13;20.90;;;7.90;93.90;;;;;;5083051;28;20051;-62
2022/03/03 10:27:34;;;;;;;38.17;22.50;;;8.00;93.30;;;;;;5081944;28;20052;-62
2022/03/03 10:30:01;;;;;;;36.20;21.80;;;8.20;92.50;;;;;;5083836;28;20054;-62
2022/03/03 10:32:27;;;;;;;30.58;20.13;;;8.40;91.80;;;;;;5073016;28;20135;-62
2022/03/03 10:34:53;;;;;;;31.48;20.67;;;8.50;90.40;;;;;;5084783;28;20052;-62
2022/03/03 10:37:23;;;;;;;35.22;20.85;;;8.60;89.40;;;;;;5085119;28;20069;-61
2022/03/03 10:39:59;;;;;;;35.88;20.88;;;8.80;87.70;;;;;;5089049;28;20042;-62
2022/03/03 10:42:26;;;;;;;35.05;21.42;;;8.90;86.80;;;;;;5073943;27;20036;-62
2022/03/03 10:45:16;;;;;;;30.90;20.70;;;9.00;86.90;;;;;;5074811;28;20549;-62
2022/03/03 10:48:06;;;;;;;33.30;20.85;;;9.20;87.20;;;;;;5071061;28;20113;-62
2022/03/03 10:50:50;;;;;;;32.28;21.08;;;9.40;86.10;;;;;;5095319;27;20127;-62
2022/03/03 10:53:18;;;;;;;32.53;20.65;;;9.60;85.10;;;;;;5073058;28;20050;-62
2022/03/03 10:56:18;;;;;;;28.85;20.05;;;9.70;84.40;;;;;;5091578;27;20105;-62
2022/03/03 10:58:52;;;;;;;32.42;20.00;;;9.80;83.60;;;;;;5072891;27;20414;-62
2022/03/03 11:01:24;;;;;;;32.38;20.38;;;10.00;81.70;;;;;;5059430;27;20140;-63
2022/03/03 11:03:51;;;;;;;31.20;19.88;;;10.00;80.00;;;;;;5069743;28;20150;-62
2022/03/03 11:06:19;;;;;;;29.52;18.70;;;10.10;80.00;;;;;;5090427;27;20498;-62
2022/03/03 11:08:47;;;;;;;26.70;18.63;;;10.20;77.90;;;;;;5073169;27;20050;-63
2022/03/03 11:11:13;;;;;;;28.60;18.67;;;10.20;77.00;;;;;;5093127;27;20159;-62
2022/03/03 11:13:39;;;;;;;25.65;18.45;;;10.30;76.40;;;;;;5072533;27;20047;-62
2022/03/03 11:16:07;;;;;;;30.33;19.67;;;10.40;75.60;;;;;;5089281;27;20047;-62
2022/03/03 11:18:33;;;;;;;29.02;19.48;;;10.40;74.20;;;;;;5091267;27;20289;-63
2022/03/03 11:21:00;;;;;;;27.20;18.92;;;10.50;73.60;;;;;;5086015;28;20430;-63
2022/03/03 11:23:40;;;;;;;29.90;19.42;;;10.50;73.10;;;;;;5089743;27;20531;-62
2022/03/03 11:26:08;;;;;;;27.52;19.27;;;10.40;72.10;;;;;;5075768;28;20043;-63
2022/03/03 11:28:36;;;;;;;29.15;20.33;;;10.60;73.10;;;;;;5068968;28;20055;-62
2022/03/03 11:31:22;;;;;;;31.40;19.88;;;10.60;72.80;;;;;;5074639;28;20126;-63
2022/03/03 11:33:48;;;;;;;29.15;19.50;;;10.70;71.60;;;;;;5067507;28;20502;-62
2022/03/03 11:36:22;;;;;;;28.08;19.10;;;10.70;71.20;;;;;;5086191;27;20047;-62
2022/03/03 11:38:53;;;;;;;32.00;20.90;;;10.70;69.70;;;;;;5058850;28;20039;-62
2022/03/03 11:41:25;;;;;;;29.00;20.42;;;10.70;69.60;;;;;;5086420;28;20050;-63
2022/03/03 11:44:04;;;;;;;29.10;20.42;;;10.80;70.10;;;;;;5086216;28;20075;-62
2022/03/03 11:46:57;;;;;;;31.90;21.92;;;10.90;71.10;;;;;;5089862;28;20048;-62
2022/03/03 11:49:24;;;;;;;;;;;11.00;71.30;;;;;;5049901;28;20052;-62
2022/03/03 11:51:54;;;;;;;35.22;23.58;;;11.20;72.30;;;;;;5090528;28;20456;-62
2022/03/03 11:54:30;;;;;;;35.00;23.75;;;11.20;72.30;;;;;;5088273;27;20429;-63
2022/03/03 11:57:04;;;;;;;33.70;22.95;;;11.20;71.50;;;;;;5073992;28;21854;-62
2022/03/03 11:59:45;;;;;;;34.33;23.88;;;11.20;69.80;;;;;;5088044;28;20129;-62
2022/03/03 12:02:19;;;;;;;34.95;23.58;;;11.10;70.60;;;;;;5077291;28;20044;-62
2022/03/03 12:04:45;;;;;;;29.92;22.08;;;11.20;70.40;;;;;;5069563;28;20043;-62
2022/03/03 12:07:28;;;;;;;32.30;22.85;;;11.20;70.40;;;;;;5087818;28;20120;-62
2022/03/03 12:09:56;;;;;;;;;;;11.30;70.20;;;;;;5074554;28;20087;-62
2022/03/03 12:12:27;;;;;;;35.08;22.02;;;11.40;70.40;;;;;;5088521;28;20039;-62
2022/03/03 12:14:58;;;;;;;31.10;19.98;;;11.50;69.40;;;;;;5065184;28;20054;-62
2022/03/03 12:17:44;;;;;;;26.75;19.27;;;11.50;68.40;;;;;;5071243;28;20048;-62
2022/03/03 12:20:32;;;;;;;28.33;19.98;;;11.50;67.40;;;;;;5088274;28;20048;-62
2022/03/03 12:23:09;;;;;;;28.48;19.80;;;11.50;67.20;;;;;;5068441;28;20656;-62
2022/03/03 12:25:47;;;;;;;27.67;19.98;;;11.50;67.00;;;;;;5069695;28;21989;-62
2022/03/03 12:28:25;;;;;;;33.90;21.83;;;11.60;66.20;;;;;;5069336;28;20058;-62
2022/03/03 12:30:53;;;;;;;30.10;20.30;;;11.60;66.00;;;;;;5071144;28;20043;-61
2022/03/03 12:33:24;;;;;;;27.70;19.55;;;11.70;65.90;;;;;;5086693;28;20402;-62
2022/03/03 12:35:52;;;;;;;33.85;20.73;;;11.90;66.30;;;;;;5052054;28;20048;-62
2022/03/03 12:38:18;;;;;;;30.52;21.50;;;12.00;66.30;;;;;;5074702;28;20048;-62
2022/03/03 12:40:45;;;;;;;30.73;21.20;;;12.20;65.90;;;;;;5074952;28;20047;-62
2022/03/03 12:43:12;;;;;;;29.85;20.23;;;12.30;64.70;;;;;;5089283;28;20047;-62